createdAt,value
2023-01-11T00:01:25.671Z,73.04
2023-01-11T00:04:12.661Z,72.64
2023-01-11T00:07:03.896Z,72.51
2023-01-11T00:09:50.791Z,72.96
2023-01-11T00:12:37.805Z,72.55
2023-01-11T00:15:27.001Z,72.76
2023-01-11T00:18:16.167Z,72.54
2023-01-11T00:21:05.656Z,72.52
2023-01-11T00:23:54.862Z,72.56
2023-01-11T00:26:41.644Z,72.47
2023-01-11T00:29:28.459Z,72.67
2023-01-11T00:32:17.808Z,72.71
2023-01-11T00:35:05.111Z,72.71
2023-01-11T00:37:55.229Z,72.64
2023-01-11T00:40:42.044Z,72.39
2023-01-11T00:43:47.557Z,72.90
2023-01-11T00:46:52.820Z,72.58
2023-01-11T00:49:40.045Z,72.78
2023-01-11T00:52:29.701Z,72.73
2023-01-11T00:55:16.548Z,72.63
2023-01-11T00:58:06.413Z,72.68
2023-01-11T01:00:56.938Z,72.73
2023-01-11T01:03:43.866Z,72.53
2023-01-11T01:06:30.910Z,72.86
2023-01-11T01:09:17.791Z,72.84
2023-01-11T01:12:07.050Z,72.55
2023-01-11T01:14:53.758Z,72.72
2023-01-11T01:17:43.118Z,72.69
2023-01-11T01:20:29.851Z,72.72
2023-01-11T01:23:16.941Z,72.76
2023-01-11T01:26:05.164Z,72.83
2023-01-11T01:28:52.087Z,72.64
2023-01-11T01:31:39.352Z,72.91
2023-01-11T01:34:26.493Z,72.92
2023-01-11T01:37:15.947Z,72.92
2023-01-11T01:40:03.186Z,73.01
2023-01-11T01:42:54.383Z,72.79
2023-01-11T01:45:48.759Z,73.03
2023-01-11T01:48:36.217Z,72.61
2023-01-11T01:51:27.482Z,72.84
2023-01-11T01:54:18.631Z,72.86
2023-01-11T01:57:08.984Z,73.04
2023-01-11T01:59:57.425Z,72.91
2023-01-11T02:02:47.753Z,73.06
2023-01-11T02:05:42.010Z,73.03
2023-01-11T02:08:37.128Z,72.99
2023-01-11T02:11:31.622Z,72.54
2023-01-11T02:14:20.106Z,72.99
2023-01-11T02:17:09.374Z,72.87
2023-01-11T02:20:09.025Z,72.80
2023-01-11T02:23:10.535Z,72.95
2023-01-11T02:26:28.119Z,72.77
2023-01-11T02:29:44.673Z,73.07
2023-01-11T02:32:31.459Z,72.92
2023-01-11T02:35:35.848Z,72.85
2023-01-11T02:38:29.525Z,72.86
2023-01-11T02:41:54.627Z,72.88
2023-01-11T02:45:04.638Z,72.96
2023-01-11T02:48:01.277Z,72.92
2023-01-11T02:51:02.788Z,72.78
2023-01-11T02:54:04.542Z,73.02
2023-01-11T02:56:55.175Z,73.04
2023-01-11T02:59:42.268Z,72.95
2023-01-11T03:02:29.292Z,72.99
2023-01-11T03:05:16.165Z,73.35
2023-01-11T03:08:15.618Z,72.81
2023-01-11T03:11:10.045Z,73.11
2023-01-11T03:14:06.394Z,73.09
2023-01-11T03:17:19.276Z,72.82
2023-01-11T03:20:29.071Z,72.92
2023-01-11T03:23:21.532Z,72.80
2023-01-11T03:26:16.016Z,72.99
2023-01-11T03:29:26.869Z,73.16
2023-01-11T03:32:22.291Z,73.05
2023-01-11T03:35:20.287Z,73.71
2023-01-11T03:38:39.280Z,72.95
2023-01-11T03:41:28.875Z,73.09
2023-01-11T03:44:19.040Z,72.94
2023-01-11T03:47:08.244Z,73.21
2023-01-11T03:49:59.809Z,72.98
2023-01-11T03:52:47.051Z,73.27
2023-01-11T03:55:40.474Z,73.15
2023-01-11T03:58:27.861Z,72.87
2023-01-11T04:01:14.996Z,73.15
2023-01-11T04:04:01.894Z,73.49
2023-01-11T04:06:51.559Z,73.25
2023-01-11T04:09:38.525Z,73.42
2023-01-11T04:12:27.286Z,73.30
2023-01-11T04:15:15.211Z,73.02
2023-01-11T04:18:05.384Z,73.50
2023-01-11T04:20:52.185Z,73.42
2023-01-11T04:23:38.947Z,73.31
2023-01-11T04:26:25.740Z,73.58
2023-01-11T04:29:12.691Z,73.49
2023-01-11T04:31:59.471Z,73.42
2023-01-11T04:34:46.382Z,73.14
2023-01-11T04:37:33.144Z,73.31
2023-01-11T04:40:20.355Z,73.54
2023-01-11T04:43:07.145Z,73.44
2023-01-11T04:45:58.778Z,73.52
2023-01-11T04:48:45.571Z,73.56
2023-01-11T04:51:32.379Z,73.47
2023-01-11T04:54:19.159Z,73.44
2023-01-11T04:57:06.280Z,73.25
2023-01-11T04:59:53.071Z,73.53
2023-01-11T05:02:40.488Z,73.61
2023-01-11T05:05:27.240Z,73.59
2023-01-11T05:08:14.260Z,73.61
2023-01-11T05:11:03.591Z,73.60
2023-01-11T05:13:53.387Z,73.83
2023-01-11T05:16:40.307Z,73.63
2023-01-11T05:19:27.098Z,73.67
2023-01-11T05:22:13.911Z,73.69
2023-01-11T05:25:00.773Z,73.38
2023-01-11T05:27:47.543Z,73.73
2023-01-11T05:30:34.359Z,73.58
2023-01-11T05:33:21.177Z,73.58
2023-01-11T05:36:12.632Z,73.70
2023-01-11T05:39:02.358Z,73.78
2023-01-11T05:41:49.235Z,73.64
2023-01-11T05:44:58.228Z,73.65
2023-01-11T05:47:45.132Z,73.86
2023-01-11T05:50:31.998Z,73.78
2023-01-11T05:53:18.959Z,73.64
2023-01-11T05:56:05.933Z,73.91
2023-01-11T05:58:55.485Z,73.92
2023-01-11T06:01:42.286Z,73.94
2023-01-11T06:04:29.173Z,73.96
2023-01-11T06:07:15.983Z,73.83
2023-01-11T06:10:02.844Z,73.90
2023-01-11T06:13:26.702Z,74.12
2023-01-11T06:16:20.482Z,73.91
2023-01-11T06:23:05.933Z,75.40
2023-01-11T06:25:52.755Z,74.82
2023-01-11T06:28:39.879Z,75.58
2023-01-11T06:31:26.645Z,75.36
2023-01-11T06:34:13.417Z,75.37
2023-01-11T06:37:00.199Z,75.12
2023-01-11T06:39:46.990Z,75.17
2023-01-11T06:42:33.742Z,75.42
2023-01-11T06:45:20.789Z,75.41
2023-01-11T06:48:09.417Z,75.23
2023-01-11T06:50:59.472Z,75.55
2023-01-11T06:53:52.961Z,75.55
2023-01-11T06:56:42.349Z,75.51
2023-01-11T06:59:32.266Z,75.29
2023-01-11T07:02:19.101Z,75.36
2023-01-11T07:05:05.957Z,75.21
2023-01-11T07:07:52.808Z,75.52
2023-01-11T07:10:39.578Z,75.67
2023-01-11T07:13:26.363Z,75.73
2023-01-11T07:16:13.161Z,75.51
2023-01-11T07:19:00.003Z,75.68
2023-01-11T07:21:46.863Z,75.70
2023-01-11T07:24:33.804Z,75.51
2023-01-11T07:27:20.774Z,75.63
2023-01-11T07:30:09.872Z,75.56
2023-01-11T07:33:00.127Z,75.65
2023-01-11T07:35:48.969Z,75.67
2023-01-11T07:38:35.849Z,75.63
2023-01-11T07:41:41.454Z,75.20
2023-01-11T07:44:28.212Z,75.25
2023-01-11T07:47:14.972Z,75.71
2023-01-11T07:50:01.792Z,75.46
2023-01-11T07:52:49.189Z,75.56
2023-01-11T07:55:36.142Z,75.69
2023-01-11T07:58:23.162Z,75.66
2023-01-11T08:01:09.955Z,75.64
2023-01-11T08:03:56.928Z,75.78
2023-01-11T08:06:43.664Z,75.61
2023-01-11T08:09:30.437Z,75.54
2023-01-11T08:12:35.840Z,75.57
2023-01-11T08:15:23.687Z,75.51
2023-01-11T08:18:11.790Z,75.69
2023-01-11T08:20:58.639Z,75.67
2023-01-11T08:23:45.397Z,76.09
2023-01-11T08:26:32.156Z,75.82
2023-01-11T08:29:19.026Z,75.94
2023-01-11T08:32:06.052Z,75.82
2023-01-11T08:34:52.785Z,75.97
2023-01-11T08:37:39.525Z,75.84
2023-01-11T08:40:26.347Z,75.84
2023-01-11T08:43:13.095Z,76.08
2023-01-11T08:45:59.952Z,76.17
2023-01-11T08:48:46.939Z,76.22
2023-01-11T08:51:33.805Z,75.82
2023-01-11T08:54:20.665Z,75.60
2023-01-11T08:57:07.710Z,75.95
2023-01-11T08:59:54.555Z,75.87
2023-01-11T09:02:41.488Z,75.64
2023-01-11T09:05:28.276Z,75.31
2023-01-11T09:08:15.032Z,75.50
2023-01-11T09:11:01.872Z,75.20
2023-01-11T09:13:48.786Z,75.10
2023-01-11T09:16:35.612Z,75.29
2023-01-11T09:19:22.430Z,75.49
2023-01-11T09:22:09.232Z,75.20
2023-01-11T09:24:58.884Z,75.13
2023-01-11T09:27:46.282Z,75.39
2023-01-11T09:30:33.086Z,75.41
2023-01-11T09:33:22.201Z,75.51
2023-01-11T09:36:09.015Z,75.66
2023-01-11T09:38:57.834Z,75.56
2023-01-11T09:42:11.269Z,75.69
2023-01-11T09:45:14.237Z,75.94
2023-01-11T09:48:11.706Z,76.10
2023-01-11T09:50:59.932Z,76.08
2023-01-11T09:53:50.234Z,76.27
2023-01-11T09:56:45.735Z,76.11
2023-01-11T09:59:42.482Z,76.29
2023-01-11T10:02:41.012Z,76.39
2023-01-11T10:05:45.394Z,76.45
2023-01-11T10:18:27.727Z,76.60
2023-01-11T10:22:32.358Z,76.54
2023-01-11T10:25:40.366Z,76.84
2023-01-11T10:28:43.050Z,76.59
2023-01-11T10:31:44.838Z,76.59
2023-01-11T10:34:58.028Z,76.93
2023-01-11T10:38:04.958Z,76.55
2023-01-11T10:41:12.288Z,76.52
2023-01-11T10:44:10.469Z,76.47
2023-01-11T10:46:57.848Z,76.73
2023-01-11T10:50:06.229Z,77.04
2023-01-11T10:53:15.037Z,76.78
2023-01-11T10:56:24.540Z,77.10
2023-01-11T10:59:34.848Z,77.30
2023-01-11T11:02:43.045Z,77.17
2023-01-11T11:05:51.954Z,77.09
2023-01-11T11:08:48.400Z,77.02
2023-01-11T11:11:41.640Z,77.17
2023-01-11T11:14:39.821Z,77.23
2023-01-11T11:17:35.320Z,77.17
2023-01-11T11:20:29.380Z,77.32
2023-01-11T11:23:25.076Z,77.22
2023-01-11T11:26:15.056Z,77.25
2023-01-11T11:29:33.599Z,77.06
2023-01-11T11:33:00.260Z,77.28
2023-01-11T11:35:56.717Z,77.33
2023-01-11T11:39:11.098Z,77.19
2023-01-11T11:42:10.534Z,77.23
2023-01-11T11:45:09.572Z,77.33
2023-01-11T11:48:05.786Z,77.12
2023-01-11T11:50:54.473Z,77.16
2023-01-11T11:53:45.996Z,77.00
2023-01-11T11:56:34.344Z,77.16
2023-01-11T12:02:52.704Z,77.47
2023-01-11T12:05:51.835Z,77.90
2023-01-11T12:08:42.385Z,77.96
2023-01-11T12:11:32.789Z,78.13
2023-01-11T12:15:24.309Z,78.22
2023-01-11T12:18:25.202Z,78.42
2023-01-11T12:21:23.892Z,78.01
2023-01-11T12:24:19.306Z,78.09
2023-01-11T12:27:12.487Z,77.69
2023-01-11T12:30:08.558Z,77.46
2023-01-11T12:33:14.009Z,77.98
2023-01-11T12:36:05.980Z,77.99
2023-01-11T12:39:24.968Z,77.95
2023-01-11T12:42:45.887Z,78.14
2023-01-11T12:46:00.707Z,78.27
2023-01-11T12:49:46.551Z,77.84
2023-01-11T12:53:07.594Z,77.98
2023-01-11T12:56:12.775Z,78.21
2023-01-11T12:59:16.059Z,78.26
2023-01-11T13:02:21.628Z,77.98
2023-01-11T13:05:49.889Z,78.48
2023-01-11T13:09:04.683Z,78.37
2023-01-11T13:12:16.195Z,78.49
2023-01-11T13:15:05.884Z,78.20
2023-01-11T13:18:00.842Z,78.32
2023-01-11T13:21:01.227Z,78.09
2023-01-11T13:23:57.910Z,78.38
2023-01-11T13:26:47.668Z,78.34
2023-01-11T13:29:44.621Z,78.48
2023-01-11T13:32:34.086Z,78.24
2023-01-11T13:35:35.839Z,78.76
2023-01-11T13:38:34.894Z,78.61
2023-01-11T13:41:25.029Z,78.83
2023-01-11T13:44:25.805Z,78.69
2023-01-11T13:47:36.013Z,78.51
2023-01-11T13:50:37.639Z,78.89
2023-01-11T13:53:48.913Z,79.13
2023-01-11T13:56:44.053Z,79.10
2023-01-11T13:59:42.821Z,79.29
2023-01-11T14:02:42.362Z,79.00
2023-01-11T14:05:35.495Z,79.05
2023-01-11T14:08:47.885Z,78.97
2023-01-11T14:12:19.353Z,79.13
2023-01-11T14:15:18.425Z,78.94
2023-01-11T14:18:11.207Z,79.31
2023-01-11T14:21:17.043Z,79.13
2023-01-11T14:24:07.969Z,79.20
2023-01-11T14:27:28.265Z,79.05
2023-01-11T14:31:19.143Z,79.61
2023-01-11T14:35:01.026Z,79.36
2023-01-11T14:38:08.977Z,79.27
2023-01-11T14:41:26.914Z,79.30
2023-01-11T14:44:28.057Z,79.18
2023-01-11T14:47:35.758Z,79.43
2023-01-11T14:50:44.946Z,79.37
2023-01-11T14:53:41.228Z,79.75
2023-01-11T14:57:14.622Z,79.19
2023-01-11T15:00:27.868Z,79.48
2023-01-11T15:10:24.799Z,79.44
2023-01-11T15:13:24.075Z,79.20
2023-01-11T15:16:39.855Z,79.61
2023-01-11T15:19:29.836Z,79.41
2023-01-11T15:22:46.297Z,79.66
2023-01-11T15:25:45.501Z,79.37
2023-01-11T15:28:37.332Z,79.62
2023-01-11T15:31:47.824Z,79.76
2023-01-11T15:34:54.072Z,79.41
2023-01-11T15:37:48.752Z,79.69
2023-01-11T15:40:41.388Z,79.56
2023-01-11T15:43:40.065Z,79.90
2023-01-11T15:46:55.738Z,79.63
2023-01-11T15:50:20.311Z,79.46
2023-01-11T15:53:25.315Z,79.68
2023-01-11T15:56:43.551Z,79.17
2023-01-11T15:59:46.769Z,79.15
2023-01-11T16:02:49.944Z,79.36
2023-01-11T16:05:44.144Z,79.74
2023-01-11T16:08:44.556Z,79.67
2023-01-11T16:11:44.562Z,79.70
2023-01-11T16:15:11.699Z,79.63
2023-01-11T16:18:12.268Z,79.64
2023-01-11T16:21:09.535Z,79.41
2023-01-11T16:23:56.683Z,79.69
2023-01-11T16:26:43.838Z,79.97
2023-01-11T16:29:35.356Z,79.65
2023-01-11T16:32:37.616Z,79.90
2023-01-11T16:35:25.286Z,80.33
2023-01-11T16:38:21.397Z,81.31
2023-01-11T16:41:13.035Z,81.81
2023-01-11T16:44:03.148Z,81.72
2023-01-11T16:47:11.280Z,81.99
2023-01-11T16:50:10.554Z,82.29
2023-01-11T16:53:01.083Z,82.44
2023-01-11T16:55:56.242Z,81.66
2023-01-11T16:58:43.428Z,81.83
2023-01-11T17:01:54.426Z,82.00
2023-01-11T17:04:50.973Z,82.18
2023-01-11T17:07:37.793Z,81.90
2023-01-11T17:10:35.104Z,82.13
2023-01-11T17:13:47.248Z,82.12
2023-01-11T17:16:41.752Z,81.46
2023-01-11T17:19:30.910Z,81.40
2023-01-11T17:22:23.675Z,81.50
2023-01-11T17:25:23.503Z,81.25
2023-01-11T17:28:16.539Z,81.54
2023-01-11T17:31:05.708Z,81.03
2023-01-11T17:34:05.858Z,81.42
2023-01-11T17:36:53.625Z,81.04
2023-01-11T17:39:50.071Z,80.51
2023-01-11T17:42:55.615Z,80.42
2023-01-11T17:45:42.773Z,80.65
2023-01-11T17:48:40.055Z,80.57
2023-01-11T17:51:33.984Z,80.48
2023-01-11T17:54:25.255Z,80.14
2023-01-11T17:57:15.198Z,80.67
2023-01-11T18:00:18.676Z,80.12
2023-01-11T18:03:15.682Z,80.35
2023-01-11T18:06:23.947Z,80.05
2023-01-11T18:10:03.997Z,80.12
2023-01-11T18:12:56.086Z,80.51
2023-01-11T18:15:46.882Z,80.31
2023-01-11T18:18:53.010Z,79.82
2023-01-11T18:21:52.346Z,80.16
2023-01-11T18:24:43.360Z,80.02
2023-01-11T18:27:35.746Z,79.74
2023-01-11T18:30:31.779Z,80.19
2023-01-11T18:33:24.333Z,80.13
2023-01-11T18:36:21.581Z,79.73
2023-01-11T18:39:30.310Z,79.61
2023-01-11T18:42:36.709Z,80.03
2023-01-11T18:46:19.115Z,79.84
2023-01-11T18:49:40.933Z,79.93
2023-01-11T18:52:49.431Z,79.96
2023-01-11T18:55:42.296Z,80.00
2023-01-11T19:08:45.804Z,79.89
2023-01-11T19:26:17.090Z,79.83
2023-01-11T19:37:26.153Z,79.63
2023-01-11T19:45:14.276Z,79.65
2023-01-11T19:48:49.787Z,79.59
2023-01-11T19:52:28.982Z,79.39
2023-01-11T19:59:10.340Z,79.89
2023-01-11T20:02:02.768Z,79.61
2023-01-11T20:05:23.335Z,79.62
2023-01-11T20:08:17.871Z,79.66
2023-01-11T20:12:12.025Z,79.69
2023-01-11T20:15:46.623Z,79.77
2023-01-11T20:19:48.624Z,79.67
2023-01-11T20:23:08.909Z,79.52
2023-01-11T20:30:00.497Z,79.46
2023-01-11T20:37:24.458Z,79.49
2023-01-11T20:48:04.953Z,79.48
2023-01-11T20:58:16.468Z,79.46
2023-01-11T21:05:44.418Z,79.38
2023-01-11T21:20:13.468Z,79.59
2023-01-11T21:23:00.238Z,79.71
2023-01-11T21:25:47.167Z,79.66
2023-01-11T21:28:37.663Z,79.66
2023-01-11T21:31:39.043Z,79.44
2023-01-11T21:34:34.560Z,79.41
2023-01-11T21:37:25.945Z,79.70
2023-01-11T21:43:33.620Z,79.29
2023-01-11T21:46:23.576Z,79.32
2023-01-11T21:49:31.508Z,79.83
2023-01-11T21:52:31.716Z,79.47
2023-01-11T21:55:25.665Z,79.73
2023-01-11T21:58:22.816Z,79.74
2023-01-11T22:01:13.013Z,79.85
2023-01-11T22:04:08.786Z,79.53
2023-01-11T22:06:56.310Z,79.72
2023-01-11T22:10:03.481Z,79.44
2023-01-11T22:12:51.621Z,79.29
2023-01-11T22:15:39.274Z,79.23
2023-01-11T22:18:54.584Z,79.55
2023-01-11T22:21:44.681Z,79.54
2023-01-11T22:24:31.535Z,79.50
2023-01-11T22:27:21.284Z,79.30
2023-01-11T22:30:21.536Z,79.21
2023-01-11T22:34:06.992Z,79.32
2023-01-11T22:36:57.057Z,79.55
2023-01-11T22:39:43.871Z,79.44
2023-01-11T22:42:30.804Z,79.45
2023-01-11T22:45:18.797Z,79.61
2023-01-11T22:48:10.941Z,79.22
2023-01-11T22:50:58.660Z,79.12
2023-01-11T22:53:48.092Z,79.03
2023-01-11T22:56:34.981Z,78.97
2023-01-11T22:59:21.851Z,79.45
2023-01-11T23:02:16.007Z,79.42
2023-01-11T23:05:02.797Z,79.38
2023-01-11T23:07:49.616Z,79.04
2023-01-11T23:10:36.379Z,79.31
2023-01-11T23:13:41.860Z,79.73
2023-01-11T23:16:28.736Z,79.38
2023-01-11T23:19:23.566Z,79.16
2023-01-11T23:22:12.677Z,79.22
2023-01-11T23:25:03.588Z,79.22
2023-01-11T23:27:50.388Z,79.35
2023-01-11T23:30:38.731Z,79.20
2023-01-11T23:33:26.332Z,79.43
2023-01-11T23:36:13.773Z,79.32
2023-01-11T23:39:00.904Z,79.24
2023-01-11T23:42:09.511Z,79.50
2023-01-11T23:44:57.531Z,79.42
2023-01-11T23:47:44.321Z,79.39
2023-01-11T23:50:31.881Z,78.92
2023-01-11T23:53:13.886Z,78.94
2023-01-11T23:56:00.824Z,79.54
2023-01-11T23:58:47.605Z,79.31
